Time;durP1;ratioP1;P1;durP2;ratioP2;P2;SDS_P1;SDS_P2;PMS_P1;PMS_P2;Temp;Humidity;BMP_temperature;BMP_pressure;BME280_temperature;BME280_humidity;BME280_pressure;Samples;Min_cycle;Max_cycle;Signal;HPM_P1;HPM_P2
2024/01/20 00:05:53;;;;;;;4.72;0.95;;;;;;;12.77;54.94;96144.06;6156863;23;20055;-27
2024/01/20 00:21:46;;;;;;;4.05;1.05;;;;;;;12.71;53.79;96140.44;6156501;23;20028;-27
2024/01/20 00:37:38;;;;;;;3.42;0.70;;;;;;;12.71;53.66;96157.53;6155089;23;20101;-27
2024/01/20 01:07:10;;;;;;;3.33;0.60;;;;;;;12.54;52.77;96142.59;6156154;23;20454;-27
2024/01/20 01:23:03;;;;;;;5.07;1.23;;;;;;;12.38;53.99;96156.41;6155521;23;20020;-27
2024/01/20 01:39:02;;;;;;;6.53;1.25;;;;;;;12.42;53.25;96146.16;6155479;23;20067;-27
2024/01/20 01:51:50;;;;;;;8.80;1.17;;;;;;;12.30;52.62;96155.91;6155218;23;20087;-27
2024/01/20 02:07:42;;;;;;;3.10;1.35;;;;;;;12.16;51.32;96178.19;6155270;23;20339;-27
2024/01/20 02:23:41;;;;;;;8.38;1.92;;;;;;;11.89;52.35;96186.88;6155380;23;20064;-27
2024/01/20 02:26:06;;;;;;;5.28;1.70;;;;;;;12.17;51.22;96206.88;6155374;23;20006;-27
2024/01/20 02:38:37;;;;;;;2.75;0.90;;;;;;;12.17;49.54;96204.94;6154320;23;20104;-27
2024/01/20 02:54:30;;;;;;;4.07;0.80;;;;;;;12.10;48.31;96224.22;6154684;23;20068;-27
2024/01/20 03:07:41;;;;;;;3.13;0.60;;;;;;;11.99;47.07;96210.19;6155591;23;20100;-27
2024/01/20 03:10:07;;;;;;;5.00;0.73;;;;;;;12.18;47.46;96216.56;6155070;23;20009;-27
2024/01/20 03:22:51;;;;;;;5.50;1.20;;;;;;;11.83;45.52;96213.09;6155046;23;20093;-27
2024/01/20 03:38:43;;;;;;;6.18;0.90;;;;;;;11.81;45.67;96218.22;6155420;23;20076;-27
2024/01/20 03:54:35;;;;;;;5.70;0.80;;;;;;;12.04;44.45;96227.91;6156551;23;20016;-27
2024/01/20 03:57:01;;;;;;;5.97;0.95;;;;;;;11.87;45.23;96219.91;6156813;23;20009;-27
2024/01/20 04:09:31;;;;;;;2.92;0.57;;;;;;;12.07;44.04;96243.34;6156778;23;20144;-27
2024/01/20 04:25:24;;;;;;;3.25;0.75;;;;;;;11.61;44.63;96236.72;6156344;23;20020;-27
2024/01/20 04:56:11;;;;;;;3.35;0.90;;;;;;;11.62;41.63;96287.84;6154676;23;20068;-27
2024/01/20 05:09:20;;;;;;;4.47;0.73;;;;;;;11.65;41.56;96284.28;6154829;23;20068;-27
2024/01/20 05:25:12;;;;;;;5.93;1.20;;;;;;;11.72;41.22;96292.22;6154311;23;20023;-27
2024/01/20 05:41:04;;;;;;;5.10;1.75;;;;;;;11.45;40.60;96297.34;6090830;23;1491943;-27
2024/01/20 06:10:24;;;;;;;5.07;1.00;;;;;;;11.44;39.91;96337.31;6155418;23;20016;-28
2024/01/20 06:26:16;;;;;;;4.50;0.93;;;;;;;11.39;39.29;96340.53;6155239;23;20064;-27
2024/01/20 06:55:18;;;;;;;8.20;2.22;;;;;;;11.03;38.44;96367.19;6155412;23;20089;-27
2024/01/20 07:11:10;;;;;;;1.63;0.90;;;;;;;11.30;39.40;96386.59;6157021;23;20137;-27
2024/01/20 07:13:38;;;;;;;6.75;1.13;;;;;;;11.35;39.16;96390.72;6157060;23;20361;-27
2024/01/20 07:16:12;;;;;;;2.47;0.70;;;;;;;11.24;39.33;96382.13;6157252;23;20033;-27
2024/01/20 07:25:39;;;;;;;4.80;0.90;;;;;;;11.18;38.25;96389.28;6156975;23;20093;-27
2024/01/20 07:41:13;;;;;;;3.17;1.40;;;;;;;11.15;39.00;96416.09;6156777;23;20048;-27
2024/01/20 07:43:38;;;;;;;6.10;1.75;;;;;;;11.11;39.38;96426.28;6156372;23;20416;-27
2024/01/20 07:46:03;;;;;;;2.47;1.15;;;;;;;11.22;40.08;96428.72;6156191;23;20005;-27
2024/01/20 07:48:29;;;;;;;4.85;1.42;;;;;;;11.05;39.65;96427.22;6155871;23;20005;-27
2024/01/20 07:50:54;;;;;;;8.43;1.42;;;;;;;11.26;39.22;96426.63;6156509;23;20005;-27
2024/01/20 07:53:20;;;;;;;5.47;1.27;;;;;;;11.24;39.54;96428.28;6130082;23;20001;-27
2024/01/20 07:55:45;;;;;;;4.97;1.25;;;;;;;10.95;39.40;96431.75;6156160;23;20068;-27
2024/01/20 07:58:11;;;;;;;4.25;1.17;;;;;;;10.93;39.26;96434.13;6156670;23;20363;-27
2024/01/20 08:00:37;;;;;;;6.03;1.42;;;;;;;10.99;39.11;96421.59;6155912;23;20528;-27
2024/01/20 08:03:02;;;;;;;6.57;1.20;;;;;;;10.93;39.89;96445.00;6156333;23;20029;-27
2024/01/20 08:05:28;;;;;;;9.13;2.97;;;;;;;11.09;39.38;96434.09;6156505;23;20080;-27
2024/01/20 08:07:54;;;;;;;6.97;1.35;;;;;;;11.03;39.53;96443.19;6156068;23;20506;-27
2024/01/20 08:10:20;;;;;;;5.15;1.15;;;;;;;11.05;39.13;96451.66;6155861;23;20005;-27
2024/01/20 08:12:45;;;;;;;6.65;1.80;;;;;;;10.85;40.44;96453.75;6156196;23;20080;-27
2024/01/20 08:15:10;;;;;;;4.50;1.10;;;;;;;11.23;39.55;96453.91;6156163;23;20419;-27
2024/01/20 08:17:36;;;;;;;3.75;0.93;;;;;;;10.60;39.81;96462.50;6156435;23;20430;-27
2024/01/20 08:20:02;;;;;;;3.53;0.98;;;;;;;11.03;39.28;96465.66;6129796;23;20005;-27
2024/01/20 08:22:27;;;;;;;5.65;1.20;;;;;;;10.95;39.67;96444.56;6156277;23;20411;-27
2024/01/20 08:24:53;;;;;;;4.95;0.73;;;;;;;10.96;40.11;96479.41;6156253;23;20009;-27
2024/01/20 08:27:18;;;;;;;6.22;1.05;;;;;;;10.99;39.90;96484.00;6156207;23;20006;-27
2024/01/20 08:29:43;;;;;;;3.65;0.85;;;;;;;11.22;39.66;96460.53;6155857;23;20005;-27
2024/01/20 08:32:09;;;;;;;2.65;1.02;;;;;;;11.23;39.47;96473.66;6155697;23;20008;-27
2024/01/20 08:34:34;;;;;;;5.90;1.10;;;;;;;11.02;39.42;96472.28;6156257;23;20084;-27
2024/01/20 08:37:00;;;;;;;4.00;1.00;;;;;;;11.15;38.78;96489.38;6156152;23;20323;-27
2024/01/20 08:39:25;;;;;;;3.30;1.08;;;;;;;10.96;39.66;96475.94;6155643;23;20451;-27
2024/01/20 08:41:51;;;;;;;3.92;0.90;;;;;;;11.19;38.50;96474.94;6155860;23;20019;-27
2024/01/20 08:44:16;;;;;;;3.33;1.08;;;;;;;11.51;38.64;96466.69;6155680;23;20016;-27
2024/01/20 08:46:42;;;;;;;5.82;1.15;;;;;;;11.27;38.66;96511.56;6155932;23;20005;-27
2024/01/20 08:49:07;;;;;;;4.10;1.10;;;;;;;11.15;38.84;96497.50;6155768;23;20069;-27
2024/01/20 08:51:33;;;;;;;2.47;0.85;;;;;;;11.29;38.34;96487.47;6155690;23;20008;-27
2024/01/20 08:53:58;;;;;;;3.38;1.13;;;;;;;11.05;38.40;96486.94;6155971;23;20072;-27
2024/01/20 08:56:24;;;;;;;1.83;0.82;;;;;;;11.28;38.35;96503.00;6155840;23;20012;-27
2024/01/20 08:58:50;;;;;;;3.42;1.00;;;;;;;11.38;37.87;96503.91;6129217;23;20410;-27
2024/01/20 09:01:17;;;;;;;3.28;1.10;;;;;;;11.23;38.37;96519.06;6155903;23;20099;-27
2024/01/20 09:03:42;;;;;;;4.13;0.93;;;;;;;11.16;38.17;96501.00;6155751;23;20009;-27
2024/01/20 09:06:10;;;;;;;4.22;0.90;;;;;;;11.42;37.44;96518.16;6155613;23;20016;-27
2024/01/20 09:08:35;;;;;;;5.78;0.98;;;;;;;11.40;38.02;96515.84;6155543;23;20056;-27
2024/01/20 09:11:01;;;;;;;5.82;1.00;;;;;;;11.48;37.63;96517.22;6155578;23;20343;-27
2024/01/20 09:13:26;;;;;;;4.57;1.27;;;;;;;11.51;38.00;96575.31;6155713;23;20092;-27
2024/01/20 09:15:52;;;;;;;7.05;2.20;;;;;;;11.60;38.12;96550.28;6129114;23;20008;-27
2024/01/20 09:18:17;;;;;;;2.42;1.45;;;;;;;12.41;36.28;96533.56;6155967;23;20002;-27
2024/01/20 09:20:43;;;;;;;3.13;1.45;;;;;;;15.33;31.96;96549.88;6155687;23;19997;-27
2024/01/20 09:23:08;;;;;;;3.38;1.20;;;;;;;17.24;28.00;96540.38;6128924;23;20005;-27
2024/01/20 09:25:34;;;;;;;4.60;1.30;;;;;;;17.69;27.45;96546.00;6155246;23;20063;-27
2024/01/20 09:28:04;;;;;;;3.83;1.38;;;;;;;17.59;27.34;96548.03;6155262;23;20438;-27
2024/01/20 09:30:30;;;;;;;3.47;1.80;;;;;;;17.23;27.77;96560.03;6155269;23;20012;-27
2024/01/20 09:32:56;;;;;;;5.55;2.13;;;;;;;17.44;27.77;96563.69;6155442;23;20352;-27
2024/01/20 09:35:22;;;;;;;5.43;1.75;;;;;;;17.05;27.31;96577.34;6155243;23;20005;-27
2024/01/20 09:37:47;;;;;;;4.97;1.17;;;;;;;16.79;28.45;96566.06;6155608;23;20052;-27
2024/01/20 09:40:15;;;;;;;2.70;1.00;;;;;;;17.23;28.38;96554.53;6154887;23;20006;-27
2024/01/20 09:42:41;;;;;;;5.65;1.48;;;;;;;17.26;27.69;96558.34;6155183;23;20041;-27
2024/01/20 09:45:07;;;;;;;5.07;1.48;;;;;;;16.56;28.70;96557.78;6155628;23;20308;-27
2024/01/20 09:47:34;;;;;;;7.07;1.77;;;;;;;16.24;29.34;96548.28;6155053;23;20084;-27
2024/01/20 09:50:00;;;;;;;6.45;1.75;;;;;;;16.70;29.20;96566.09;6155606;23;20006;-27
2024/01/20 09:52:27;;;;;;;2.60;1.20;;;;;;;16.80;28.59;96562.09;6155165;23;20002;-28
2024/01/20 09:55:09;;;;;;;7.90;2.80;;;;;;;16.48;29.83;96563.56;6155112;23;20001;-28
2024/01/20 09:57:36;;;;;;;5.82;1.58;;;;;;;15.46;30.31;96563.38;6128891;23;20396;-27
2024/01/20 10:00:04;;;;;;;4.80;1.77;;;;;;;15.48;30.44;96565.66;6155310;23;20010;-27
2024/01/20 10:02:34;;;;;;;5.03;1.27;;;;;;;14.48;31.29;96558.75;6154997;23;20002;-27
2024/01/20 10:05:03;;;;;;;2.90;1.33;;;;;;;15.24;31.38;96566.25;6155159;23;20037;-27
2024/01/20 10:07:29;;;;;;;3.67;1.00;;;;;;;14.60;32.14;96571.53;6154995;23;20497;-27
2024/01/20 10:09:55;;;;;;;4.20;1.50;;;;;;;14.91;32.19;96574.25;6154934;23;20001;-27
2024/01/20 10:12:22;;;;;;;7.05;1.33;;;;;;;14.34;32.80;96570.22;6154960;23;20005;-27
2024/01/20 10:14:47;;;;;;;5.53;1.45;;;;;;;14.23;33.57;96578.00;6154990;23;20136;-27
2024/01/20 10:17:13;;;;;;;6.53;1.33;;;;;;;13.66;34.07;96578.09;6128892;23;20041;-27
2024/01/20 10:19:38;;;;;;;6.03;1.63;;;;;;;13.83;34.81;96581.41;6155073;23;20009;-27
2024/01/20 10:22:11;;;;;;;7.45;2.65;;;;;;;13.35;35.40;96571.78;6154706;23;20073;-27
2024/01/20 10:24:49;;;;;;;8.70;2.63;;;;;;;13.33;35.52;96565.25;6155113;23;20040;-27
2024/01/20 10:27:17;;;;;;;4.47;2.10;;;;;;;13.26;35.18;96572.44;6154817;23;20063;-27
2024/01/20 10:29:42;;;;;;;7.00;2.92;;;;;;;12.94;36.86;96576.19;6155009;23;20006;-27
2024/01/20 10:32:08;;;;;;;7.22;2.10;;;;;;;13.13;36.74;96563.53;6154539;23;20012;-27
2024/01/20 10:34:33;;;;;;;4.13;2.30;;;;;;;12.71;37.17;96587.44;6155327;23;20009;-27
2024/01/20 10:37:05;;;;;;;3.58;1.90;;;;;;;12.86;37.11;96595.91;6154637;23;20029;-27
2024/01/20 10:39:34;;;;;;;8.27;2.10;;;;;;;12.74;37.77;96596.66;6154835;23;20006;-27
2024/01/20 10:42:03;;;;;;;8.80;2.63;;;;;;;12.58;37.82;96587.44;6154867;23;20020;-27
2024/01/20 10:44:31;;;;;;;6.65;2.90;;;;;;;12.57;38.48;96596.03;6154611;23;20021;-27
2024/01/20 10:47:00;;;;;;;6.90;2.60;;;;;;;12.61;38.08;96593.22;6154967;23;20049;-27
2024/01/20 10:49:25;;;;;;;6.63;2.10;;;;;;;12.74;39.06;96599.38;6154501;23;20006;-27
2024/01/20 10:51:52;;;;;;;7.28;2.45;;;;;;;12.58;39.49;96598.31;6154919;23;20401;-27
2024/01/20 10:54:18;;;;;;;10.85;3.67;;;;;;;12.62;39.30;96611.03;6155066;23;20024;-27
2024/01/20 10:56:43;;;;;;;6.95;2.50;;;;;;;12.52;39.57;96597.34;6154611;23;20420;-27
2024/01/20 10:59:17;;;;;;;4.22;1.70;;;;;;;12.48;39.23;96618.47;6155014;23;20027;-27
2024/01/20 11:01:45;;;;;;;4.20;1.63;;;;;;;12.57;39.65;96604.19;6154621;23;20369;-27
2024/01/20 11:04:17;;;;;;;6.70;2.08;;;;;;;12.37;39.63;96601.66;6154646;23;20002;-27
2024/01/20 11:06:43;;;;;;;4.28;1.50;;;;;;;12.37;40.14;96636.25;6154930;23;20094;-27
2024/01/20 11:09:09;;;;;;;7.03;1.77;;;;;;;12.38;40.08;96613.31;6154831;23;20009;-27
2024/01/20 11:11:35;;;;;;;3.92;2.20;;;;;;;12.45;40.34;96604.94;6154926;23;20010;-27
2024/01/20 11:14:01;;;;;;;6.53;2.35;;;;;;;12.35;40.16;96606.03;6154603;23;20015;-27
2024/01/20 11:16:34;;;;;;;4.30;1.30;;;;;;;12.21;40.55;96604.47;6154850;23;20076;-27
2024/01/20 11:19:11;;;;;;;4.00;1.15;;;;;;;12.22;40.92;96612.22;6154611;23;20088;-27
2024/01/20 11:21:37;;;;;;;2.72;0.98;;;;;;;12.32;40.79;96602.22;6128642;23;20072;-27
2024/01/20 11:24:04;;;;;;;3.33;0.90;;;;;;;12.17;41.28;96606.53;6154332;23;20450;-27
2024/01/20 11:26:34;;;;;;;5.13;1.42;;;;;;;12.12;41.13;96610.53;6154986;23;20300;-27
2024/01/20 11:29:02;;;;;;;2.55;0.90;;;;;;;12.19;41.12;96602.19;6154574;23;20316;-27
2024/01/20 11:31:30;;;;;;;2.35;0.90;;;;;;;12.08;41.79;96609.91;6154519;23;20005;-27
2024/01/20 11:33:57;;;;;;;7.70;0.90;;;;;;;12.28;41.13;96617.88;6154735;23;20006;-27
2024/01/20 11:36:22;;;;;;;3.33;1.10;;;;;;;12.14;41.15;96599.22;6154300;23;20547;-27
2024/01/20 11:38:48;;;;;;;2.80;0.88;;;;;;;12.14;41.45;96618.25;6154582;23;20044;-27
2024/01/20 11:41:18;;;;;;;3.53;1.30;;;;;;;12.18;42.11;96600.66;6154305;23;20024;-27
2024/01/20 11:43:47;;;;;;;3.85;0.90;;;;;;;12.17;41.83;96618.19;6154494;23;20006;-27
2024/01/20 11:46:12;;;;;;;6.03;1.15;;;;;;;12.03;42.26;96599.53;6155023;23;20013;-27
2024/01/20 11:48:38;;;;;;;5.05;1.75;;;;;;;12.19;42.29;96602.19;6130183;23;20005;-27
2024/01/20 11:51:04;;;;;;;3.40;1.00;;;;;;;12.19;41.39;96613.06;6156195;23;20025;-27
2024/01/20 11:53:30;;;;;;;2.85;0.90;;;;;;;12.34;42.20;96597.13;6156171;23;20037;-27
2024/01/20 11:55:58;;;;;;;3.53;1.02;;;;;;;12.29;42.01;96594.91;6156277;23;20080;-27
2024/01/20 11:58:24;;;;;;;3.80;1.40;;;;;;;12.22;41.40;96614.16;6156561;23;20385;-27
2024/01/20 12:00:51;;;;;;;3.05;1.60;;;;;;;12.29;41.35;96605.78;6156131;23;20013;-27
2024/01/20 12:03:17;;;;;;;4.47;0.80;;;;;;;12.31;41.44;96608.84;6156742;23;20009;-27
2024/01/20 12:05:43;;;;;;;4.95;1.13;;;;;;;12.21;41.50;96605.25;6156449;23;20005;-27
2024/01/20 12:08:09;;;;;;;6.43;1.60;;;;;;;12.03;42.04;96601.50;6156070;23;20335;-27
2024/01/20 12:10:34;;;;;;;4.03;1.35;;;;;;;11.95;41.92;96583.88;6129766;23;20002;-27
2024/01/20 12:13:03;;;;;;;6.05;1.58;;;;;;;12.15;41.04;96600.75;6156060;23;20017;-27
2024/01/20 12:15:41;;;;;;;6.10;1.45;;;;;;;12.12;41.85;96598.91;6156231;23;20005;-27
2024/01/20 12:18:07;;;;;;;2.58;1.20;;;;;;;12.20;41.09;96602.97;6156030;23;20009;-27
2024/01/20 12:20:34;;;;;;;4.28;1.30;;;;;;;12.42;41.27;96603.84;6156053;23;19998;-27
2024/01/20 12:23:03;;;;;;;4.13;1.85;;;;;;;12.12;41.39;96607.06;6155928;23;20013;-27
2024/01/20 12:25:32;;;;;;;2.60;0.98;;;;;;;12.00;40.89;96618.66;6156029;23;20055;-27
2024/01/20 12:27:58;;;;;;;4.65;1.60;;;;;;;12.01;41.51;96603.88;6155704;23;20005;-27
2024/01/20 12:30:24;;;;;;;4.25;1.63;;;;;;;12.26;41.10;96606.66;6155888;23;20335;-27
2024/01/20 12:32:49;;;;;;;5.03;1.40;;;;;;;12.22;41.73;96614.16;6156227;23;20006;-27
2024/01/20 12:35:15;;;;;;;2.33;1.05;;;;;;;12.13;41.68;96595.00;6155556;23;20035;-28
2024/01/20 12:37:41;;;;;;;4.25;1.25;;;;;;;12.04;41.15;96611.19;6155804;23;20036;-27
2024/01/20 12:40:07;;;;;;;3.55;1.20;;;;;;;12.00;41.71;96589.53;6155706;23;20375;-27
2024/01/20 12:42:33;;;;;;;2.45;1.08;;;;;;;11.87;41.62;96591.44;6155889;23;20021;-27
2024/01/20 12:44:58;;;;;;;5.60;1.08;;;;;;;12.03;41.47;96601.50;6155859;23;20044;-27
2024/01/20 12:47:24;;;;;;;4.28;1.00;;;;;;;12.08;41.17;96628.91;6155691;23;20378;-27
2024/01/20 12:49:53;;;;;;;4.97;1.65;;;;;;;12.10;40.75;96625.78;6155811;23;20307;-27
2024/01/20 12:52:20;;;;;;;4.80;1.40;;;;;;;12.10;40.23;96628.50;6155561;23;20144;-27
2024/01/20 12:54:45;;;;;;;5.35;2.15;;;;;;;12.10;40.36;96621.09;6155936;23;20001;-27
2024/01/20 12:57:11;;;;;;;6.38;1.40;;;;;;;12.01;40.78;96620.19;6155113;23;20446;-27
2024/01/20 12:59:36;;;;;;;6.18;2.20;;;;;;;12.12;41.11;96628.81;6155637;23;20016;-27
2024/01/20 13:02:02;;;;;;;5.15;2.30;;;;;;;11.99;40.64;96625.31;6155890;23;20309;-27
2024/01/20 13:04:28;;;;;;;4.25;1.95;;;;;;;11.87;40.93;96632.97;6155552;23;20005;-27
2024/01/20 13:06:53;;;;;;;4.93;1.27;;;;;;;11.87;41.07;96638.41;6155496;23;20080;-27
2024/01/20 13:09:21;;;;;;;4.88;1.63;;;;;;;11.83;41.47;96629.59;6155859;23;20379;-27
2024/01/20 13:11:47;;;;;;;10.18;3.30;;;;;;;11.93;40.43;96648.75;6155641;23;20281;-27
2024/01/20 13:14:13;;;;;;;10.30;3.30;;;;;;;11.77;40.26;96641.41;6155550;23;20055;-27
2024/01/20 13:16:38;;;;;;;8.02;2.30;;;;;;;11.90;40.57;96636.78;6155705;23;20024;-27
2024/01/20 13:19:04;;;;;;;9.02;2.33;;;;;;;11.96;39.92;96628.88;6155474;23;20010;-27
2024/01/20 13:21:29;;;;;;;7.63;2.28;;;;;;;12.03;39.94;96629.44;6155451;23;20005;-27
2024/01/20 13:23:55;;;;;;;7.20;2.65;;;;;;;12.11;40.77;96641.66;6155471;23;20009;-26
2024/01/20 13:26:20;;;;;;;7.47;2.10;;;;;;;12.07;40.53;96654.59;6155839;23;20061;-27
2024/01/20 13:28:47;;;;;;;9.15;2.40;;;;;;;11.91;41.51;96645.72;6155595;23;20009;-27
2024/01/20 13:31:13;;;;;;;7.63;2.83;;;;;;;12.07;40.64;96665.44;6155093;23;20012;-27
2024/01/20 13:33:39;;;;;;;6.70;2.78;;;;;;;11.87;40.73;96659.38;6155189;23;20005;-27
2024/01/20 13:36:04;;;;;;;7.78;3.15;;;;;;;12.05;41.41;96664.34;6155185;23;20016;-27
2024/01/20 13:38:30;;;;;;;9.30;2.75;;;;;;;11.87;40.72;96678.41;6155574;23;20008;-27
2024/01/20 13:40:57;;;;;;;4.53;1.80;;;;;;;11.88;41.07;96675.25;6155282;23;20084;-27
2024/01/20 13:43:22;;;;;;;6.05;1.70;;;;;;;12.06;40.87;96688.41;6155463;23;20005;-27
2024/01/20 13:45:48;;;;;;;5.93;2.05;;;;;;;12.06;40.87;96684.91;6155267;23;20052;-27
2024/01/20 13:48:14;;;;;;;7.63;1.85;;;;;;;11.74;40.91;96681.06;6155327;23;20012;-27
2024/01/20 13:50:40;;;;;;;7.75;2.50;;;;;;;11.82;40.97;96693.28;6155010;23;20006;-27
2024/01/20 13:53:06;;;;;;;9.57;3.30;;;;;;;11.77;40.77;96701.19;6155208;23;20001;-27
2024/01/20 13:55:31;;;;;;;9.00;2.92;;;;;;;12.00;40.71;96698.25;6154902;23;20009;-27
2024/01/20 13:57:57;;;;;;;5.07;2.03;;;;;;;11.87;40.95;96728.09;6155340;23;20005;-27
2024/01/20 14:00:22;;;;;;;8.48;3.13;;;;;;;11.83;40.62;96719.28;6155300;23;20335;-27
2024/01/20 14:02:48;;;;;;;6.18;2.80;;;;;;;11.99;40.68;96715.00;6155132;23;20010;-27
2024/01/20 14:05:14;;;;;;;8.93;3.20;;;;;;;12.15;40.16;96731.25;6155301;23;20080;-27
2024/01/20 14:07:40;;;;;;;7.10;2.90;;;;;;;12.00;40.59;96758.06;6154822;23;20009;-27
2024/01/20 14:10:06;;;;;;;8.52;3.95;;;;;;;11.97;39.86;96730.97;6155079;23;20005;-27
2024/01/20 14:12:32;;;;;;;12.55;4.80;;;;;;;11.80;39.77;96730.22;6155376;23;20005;-27
2024/01/20 14:14:57;;;;;;;6.38;2.75;;;;;;;11.83;40.17;96724.72;6154673;23;20075;-27
2024/01/20 14:17:23;;;;;;;9.32;3.80;;;;;;;11.73;39.92;96712.13;6154784;23;20001;-27
2024/01/20 14:19:49;;;;;;;6.60;2.80;;;;;;;12.02;39.83;96722.28;6155326;23;20087;-27
2024/01/20 14:22:20;;;;;;;7.80;2.80;;;;;;;11.90;40.13;96725.72;6155315;23;20001;-27
2024/01/20 14:24:46;;;;;;;8.00;3.00;;;;;;;11.83;39.50;96743.75;6129264;23;20349;-27
2024/01/20 14:27:11;;;;;;;5.85;1.80;;;;;;;11.65;39.52;96765.09;6154899;23;20081;-27
2024/01/20 14:29:37;;;;;;;6.15;2.30;;;;;;;11.62;38.94;96759.78;6154984;23;20072;-27
2024/01/20 14:32:03;;;;;;;7.18;3.30;;;;;;;11.48;40.50;96760.88;6154458;23;20005;-27
2024/01/20 14:34:28;;;;;;;8.52;3.15;;;;;;;11.74;39.30;96764.53;6154893;23;20400;-27
2024/01/20 14:36:55;;;;;;;10.70;2.42;;;;;;;11.56;39.83;96759.50;6154811;23;20305;-27
2024/01/20 14:39:22;;;;;;;6.78;2.80;;;;;;;11.67;38.90;96760.00;6154873;23;20390;-27
2024/01/20 14:41:48;;;;;;;8.88;2.70;;;;;;;11.72;39.30;96754.06;6154620;23;20017;-27
2024/01/20 14:44:14;;;;;;;8.93;3.90;;;;;;;11.35;38.96;96735.56;6154677;23;20033;-27
2024/01/20 14:46:40;;;;;;;9.43;2.80;;;;;;;11.55;38.89;96732.75;6155293;23;20009;-27
2024/01/20 14:49:05;;;;;;;6.75;2.33;;;;;;;11.64;38.88;96706.53;6154642;23;20088;-27
2024/01/20 14:51:31;;;;;;;7.65;1.77;;;;;;;11.80;38.43;96713.94;6154681;23;20002;-27
2024/01/20 14:53:57;;;;;;;4.50;1.30;;;;;;;11.61;38.36;96709.34;6154943;23;20006;-27
2024/01/20 14:56:28;;;;;;;4.82;1.20;;;;;;;11.44;38.32;96743.88;6152615;23;20016;-27
2024/01/20 14:58:54;;;;;;;3.90;1.35;;;;;;;11.32;38.71;96731.75;6152049;23;20008;-27
2024/01/20 15:01:21;;;;;;;4.15;1.73;;;;;;;11.50;38.21;96734.03;6154650;23;20005;-27
2024/01/20 15:03:46;;;;;;;6.70;2.35;;;;;;;11.28;38.63;96731.06;6154368;23;20006;-27
2024/01/20 15:06:11;;;;;;;8.15;2.03;;;;;;;11.51;38.90;96711.88;6153865;23;20006;-27
2024/01/20 15:08:37;;;;;;;3.47;1.75;;;;;;;11.41;38.12;96717.56;6153357;23;20076;-27
2024/01/20 15:11:02;;;;;;;3.75;1.70;;;;;;;11.44;38.48;96747.38;6154802;23;20192;-27
2024/01/20 15:13:28;;;;;;;2.60;1.05;;;;;;;11.47;38.17;96734.91;6154593;23;20418;-27
2024/01/20 15:15:54;;;;;;;5.25;1.67;;;;;;;11.48;38.74;96741.84;6154531;23;20006;-27
2024/01/20 15:18:19;;;;;;;4.72;1.42;;;;;;;11.36;38.31;96761.53;6154946;23;20506;-27
2024/01/20 15:20:44;;;;;;;5.85;1.63;;;;;;;11.29;38.53;96758.97;6155087;23;20412;-27
2024/01/20 15:23:10;;;;;;;5.38;1.40;;;;;;;11.17;38.45;96773.97;6156620;23;20424;-27
2024/01/20 15:25:36;;;;;;;3.60;0.98;;;;;;;11.22;38.97;96756.44;6156795;23;20340;-27
2024/01/20 15:28:03;;;;;;;4.05;0.90;;;;;;;11.23;38.72;96764.16;6156490;23;20079;-27
2024/01/20 15:30:28;;;;;;;7.07;1.30;;;;;;;10.96;38.31;96769.00;6156482;23;20002;-27
2024/01/20 15:32:54;;;;;;;5.07;2.13;;;;;;;11.39;38.04;96755.25;6156768;23;20080;-27
2024/01/20 15:35:19;;;;;;;3.15;0.98;;;;;;;10.86;38.38;96776.19;6156464;23;20416;-27
2024/01/20 15:37:45;;;;;;;9.20;3.75;;;;;;;10.82;39.26;96807.28;6156743;23;20097;-27
2024/01/20 15:40:11;;;;;;;6.43;2.85;;;;;;;11.18;37.92;96801.88;6156363;23;20052;-27
2024/01/20 15:42:36;;;;;;;10.65;5.10;;;;;;;11.38;37.50;96800.63;6156115;23;20046;-27
2024/01/20 15:45:02;;;;;;;9.50;4.93;;;;;;;11.42;37.89;96825.00;6156478;23;20016;-27
2024/01/20 15:47:27;;;;;;;5.90;2.97;;;;;;;11.18;37.96;96835.22;6156126;23;20001;-27
2024/01/20 15:49:53;;;;;;;6.60;2.65;;;;;;;11.33;37.60;96841.13;6156528;23;20001;-27
2024/01/20 15:52:18;;;;;;;5.03;2.17;;;;;;;11.52;37.09;96840.31;6156207;23;20006;-27
2024/01/20 15:54:46;;;;;;;7.65;3.65;;;;;;;11.31;37.91;96832.63;6156562;23;20010;-27
2024/01/20 15:57:11;;;;;;;6.35;2.30;;;;;;;11.30;36.77;96841.97;6156596;23;20001;-27
2024/01/20 15:59:37;;;;;;;7.75;2.28;;;;;;;11.35;37.71;96860.47;6156038;23;20013;-27
2024/01/20 16:02:03;;;;;;;6.97;2.17;;;;;;;11.30;37.19;96867.16;6156090;23;20007;-27
2024/01/20 16:04:33;;;;;;;3.00;1.70;;;;;;;11.32;38.28;96870.22;6156451;23;20002;-27
2024/01/20 16:06:59;;;;;;;6.03;2.28;;;;;;;11.48;38.07;96899.38;6156289;23;20017;-27
2024/01/20 16:09:24;;;;;;;8.48;2.00;;;;;;;11.20;37.70;96897.25;6156354;23;20006;-27
2024/01/20 16:11:52;;;;;;;4.18;1.40;;;;;;;11.42;37.74;96882.81;6155602;23;20001;-27
2024/01/20 16:14:22;;;;;;;4.35;1.80;;;;;;;11.02;37.18;96887.50;6156558;23;20013;-27
2024/01/20 16:16:47;;;;;;;5.65;2.20;;;;;;;11.14;37.76;96884.16;6155945;23;20008;-27
2024/01/20 16:19:13;;;;;;;4.07;1.30;;;;;;;11.37;37.57;96874.41;6156185;23;20005;-27
2024/01/20 16:21:38;;;;;;;3.40;1.23;;;;;;;10.96;37.46;96882.97;6156562;23;20001;-27
2024/01/20 16:24:04;;;;;;;3.97;1.20;;;;;;;11.25;37.30;96896.78;6155826;23;20001;-27
2024/01/20 16:26:29;;;;;;;8.27;1.85;;;;;;;11.03;37.45;96905.31;6156154;23;20025;-27
2024/01/20 16:28:55;;;;;;;8.23;2.90;;;;;;;10.75;37.43;96916.72;6156059;23;20001;-27
2024/01/20 16:31:21;;;;;;;10.60;4.63;;;;;;;11.09;37.06;96928.09;6155821;23;20340;-27
2024/01/20 16:33:46;;;;;;;17.98;8.80;;;;;;;10.90;37.49;96934.25;6156023;23;20005;-27
2024/01/20 16:36:21;;;;;;;36.42;14.32;;;;;;;10.99;37.24;96958.16;6155861;23;20061;-27
2024/01/20 16:38:46;;;;;;;28.45;12.35;;;;;;;10.95;37.85;96958.19;6156039;23;20010;-27
2024/01/20 16:41:12;;;;;;;19.05;9.48;;;;;;;11.20;37.60;96963.16;6155434;23;20352;-27
2024/01/20 16:43:38;;;;;;;10.45;5.45;;;;;;;10.99;37.33;96958.16;6156063;23;20031;-27
2024/01/20 16:46:05;;;;;;;8.63;4.30;;;;;;;11.03;37.63;96967.75;6129749;23;20012;-27
2024/01/20 16:48:30;;;;;;;13.80;7.63;;;;;;;11.06;37.21;96958.78;6155822;23;20076;-27
2024/01/20 16:50:56;;;;;;;12.35;5.25;;;;;;;10.90;36.96;96966.81;6155909;23;20027;-27
2024/01/20 16:53:22;;;;;;;14.48;3.47;;;;;;;10.92;37.15;96969.88;6155904;23;20001;-27
2024/01/20 16:55:47;;;;;;;6.32;2.15;;;;;;;11.08;36.39;96985.50;6155853;23;20032;-27
2024/01/20 16:58:14;;;;;;;4.80;1.90;;;;;;;11.01;37.25;96983.66;6155707;23;20025;-27
2024/01/20 17:00:40;;;;;;;6.82;2.00;;;;;;;11.11;36.80;96971.09;6155578;23;20068;-27
2024/01/20 17:03:05;;;;;;;16.67;8.77;;;;;;;10.91;37.29;96981.91;6156005;23;20392;-27
2024/01/20 17:05:31;;;;;;;11.50;6.25;;;;;;;10.99;36.73;96985.28;6155728;23;20444;-27
2024/01/20 17:07:56;;;;;;;12.52;5.90;;;;;;;10.81;37.03;96980.16;6155450;23;20085;-27
2024/01/20 17:10:22;;;;;;;7.30;3.33;;;;;;;10.90;36.93;96982.31;6129657;23;20316;-27
2024/01/20 17:12:48;;;;;;;7.43;2.60;;;;;;;11.06;37.05;96979.72;6129381;23;20006;-27
2024/01/20 17:15:14;;;;;;;4.68;1.75;;;;;;;10.98;36.85;96975.63;6155674;23;20001;-27
2024/01/20 17:17:40;;;;;;;5.18;2.05;;;;;;;11.07;36.49;96968.44;6155996;23;20013;-27
2024/01/20 17:20:07;;;;;;;9.65;6.90;;;;;;;11.13;35.82;96991.19;6155235;23;20336;-27
2024/01/20 17:22:33;;;;;;;12.18;10.68;;;;;;;11.03;36.09;96989.44;6155529;23;20072;-27
2024/01/20 17:24:58;;;;;;;9.40;7.05;;;;;;;11.03;35.56;96986.75;6155372;23;20005;-27
2024/01/20 17:27:24;;;;;;;5.82;4.43;;;;;;;10.91;35.47;97000.16;6155478;23;20393;-27
2024/01/20 17:29:49;;;;;;;6.07;4.85;;;;;;;10.94;36.13;97008.22;6155450;23;20013;-27
2024/01/20 17:32:15;;;;;;;8.00;4.40;;;;;;;10.95;36.47;97020.63;6154995;23;20084;-27
2024/01/20 17:34:41;;;;;;;9.48;6.25;;;;;;;11.03;36.18;97041.03;6155318;23;20037;-27
2024/01/20 17:37:07;;;;;;;4.65;2.95;;;;;;;10.97;35.82;97025.63;6155174;23;20041;-27
2024/01/20 17:39:37;;;;;;;5.00;2.50;;;;;;;10.94;36.05;97029.94;6155406;23;20321;-27
2024/01/20 17:42:09;;;;;;;8.85;7.95;;;;;;;10.90;35.51;97031.16;6155254;23;20013;-27
2024/01/20 17:44:37;;;;;;;8.43;6.20;;;;;;;10.72;36.65;97031.47;6154965;23;20056;-27
2024/01/20 17:47:03;;;;;;;28.05;14.05;;;;;;;11.07;35.58;97030.88;6155841;23;20227;-27
2024/01/20 17:49:28;;;;;;;35.83;17.10;;;;;;;10.97;35.74;97029.13;6154786;23;20005;-27
2024/01/20 17:51:54;;;;;;;55.90;23.77;;;;;;;10.82;36.09;97046.03;6155252;23;20009;-27